Time;durP1;ratioP1;P1;durP2;ratioP2;P2;SDS_P1;SDS_P2;PMS_P1;PMS_P2;Temp;Humidity;BMP_temperature;BMP_pressure;BME280_temperature;BME280_humidity;BME280_pressure;Samples;Min_cycle;Max_cycle;Signal;HPM_P1;HPM_P2
2023/07/09 00:01:52;;;;;;;7.78;4.93;;;21.20;99.90;;;;;;5047179;28;20041;-88
2023/07/09 00:04:18;;;;;;;5.70;3.85;;;21.10;99.90;;;;;;5015038;28;20044;-87
2023/07/09 00:06:45;;;;;;;6.50;4.00;;;21.10;99.90;;;;;;5031330;28;20086;-88
2023/07/09 00:09:16;;;;;;;8.63;4.20;;;21.00;99.90;;;;;;5030676;28;20229;-87
2023/07/09 00:11:43;;;;;;;7.50;4.18;;;21.00;99.90;;;;;;5048394;28;20041;-87
2023/07/09 00:14:10;;;;;;;5.47;3.85;;;21.00;99.90;;;;;;5047767;28;20076;-87
2023/07/09 00:16:36;;;;;;;6.25;4.00;;;20.90;99.90;;;;;;5052348;28;20380;-88
2023/07/09 00:19:03;;;;;;;7.45;4.90;;;20.90;99.90;;;;;;5051382;28;20037;-86
2023/07/09 00:21:33;;;;;;;8.32;3.92;;;20.90;99.90;;;;;;5018348;28;20262;-87
2023/07/09 00:24:04;;;;;;;5.07;4.43;;;20.90;99.90;;;;;;5036356;28;20059;-88
2023/07/09 00:26:32;;;;;;;6.20;4.82;;;20.80;99.90;;;;;;5035050;28;20041;-88
2023/07/09 00:28:58;;;;;;;5.60;4.28;;;20.80;99.90;;;;;;5035395;28;20101;-87
2023/07/09 00:31:24;;;;;;;6.43;4.80;;;20.80;99.90;;;;;;5018513;28;20083;-87
2023/07/09 00:33:50;;;;;;;8.13;4.60;;;20.70;99.90;;;;;;5051455;28;20088;-86
2023/07/09 00:36:23;;;;;;;5.68;4.13;;;20.70;99.90;;;;;;5034479;28;20049;-87
2023/07/09 00:38:51;;;;;;;5.45;4.38;;;20.10;99.90;;;;;;5035020;28;20051;-88
2023/07/09 00:41:22;;;;;;;6.97;4.78;;;20.70;99.90;;;;;;5052167;28;20373;-87
2023/07/09 00:43:50;;;;;;;5.82;4.68;;;20.70;99.90;;;;;;5034222;28;20085;-87
2023/07/09 00:46:35;;;;;;;5.32;4.65;;;20.60;99.90;;;;;;5052141;28;20396;-87
2023/07/09 00:49:10;;;;;;;6.60;4.88;;;20.60;99.90;;;;;;5033735;28;20534;-87
2023/07/09 00:51:42;;;;;;;7.97;4.55;;;20.60;99.90;;;;;;5034569;28;20124;-86
2023/07/09 00:54:14;;;;;;;9.50;4.93;;;20.50;99.90;;;;;;5051390;28;20093;-87
2023/07/09 00:56:44;;;;;;;6.65;4.38;;;20.50;99.90;;;;;;5034268;28;20044;-87
2023/07/09 00:59:15;;;;;;;7.72;5.50;;;20.50;99.90;;;;;;5051609;28;20093;-89
2023/07/09 01:01:41;;;;;;;7.03;4.60;;;20.50;99.90;;;;;;5051287;28;20043;-89
2023/07/09 01:04:10;;;;;;;8.00;5.25;;;20.50;99.90;;;;;;5051384;28;20032;-89
2023/07/09 01:06:41;;;;;;;8.70;4.90;;;20.40;99.90;;;;;;5050454;28;20044;-89
2023/07/09 01:09:07;;;;;;;5.55;4.38;;;20.40;99.90;;;;;;5050861;28;20106;-89
2023/07/09 01:11:34;;;;;;;6.95;4.57;;;20.40;99.90;;;;;;5051095;28;20044;-89
2023/07/09 01:14:02;;;;;;;7.60;4.88;;;20.40;99.90;;;;;;5050489;28;20040;-89
2023/07/09 01:16:32;;;;;;;8.10;5.18;;;20.40;99.90;;;;;;5051776;28;20040;-89
2023/07/09 01:18:58;;;;;;;5.65;4.88;;;20.30;99.90;;;;;;5050414;28;20110;-90
2023/07/09 01:21:24;;;;;;;6.82;4.78;;;20.30;99.90;;;;;;5051331;28;20114;-89
2023/07/09 01:23:51;;;;;;;8.88;5.05;;;20.30;99.90;;;;;;5051052;28;20483;-89
2023/07/09 01:26:20;;;;;;;8.75;5.00;;;20.30;99.90;;;;;;5032791;28;20040;-88
2023/07/09 01:28:47;;;;;;;6.30;4.88;;;20.30;99.90;;;;;;5051186;28;20047;-88
2023/07/09 01:31:14;;;;;;;10.23;5.10;;;20.20;99.90;;;;;;5050011;28;20102;-88
2023/07/09 01:33:41;;;;;;;5.28;4.45;;;20.20;99.90;;;;;;5050935;28;20060;-88
2023/07/09 01:36:09;;;;;;;7.97;5.28;;;20.20;99.90;;;;;;5049946;28;20067;-88
2023/07/09 01:38:35;;;;;;;7.30;5.68;;;20.20;99.90;;;;;;5033797;28;20053;-89
2023/07/09 01:41:01;;;;;;;11.23;5.63;;;20.20;99.90;;;;;;5050602;28;20449;-88
2023/07/09 01:43:28;;;;;;;8.25;4.90;;;20.10;99.90;;;;;;5050681;28;20427;-89
2023/07/09 01:46:00;;;;;;;8.20;5.55;;;20.10;99.90;;;;;;5051589;28;20060;-89
2023/07/09 01:48:26;;;;;;;6.10;4.45;;;20.10;99.90;;;;;;5050461;28;20040;-88
2023/07/09 01:50:53;;;;;;;6.78;4.88;;;20.00;99.90;;;;;;5039737;28;20049;-89
2023/07/09 01:53:26;;;;;;;8.05;4.93;;;20.00;99.90;;;;;;5054083;28;20047;-89
2023/07/09 01:55:54;;;;;;;7.03;4.97;;;20.00;99.90;;;;;;5054240;28;20055;-89
2023/07/09 01:58:24;;;;;;;7.20;5.43;;;20.00;99.90;;;;;;5050687;28;20064;-88
2023/07/09 02:00:50;;;;;;;6.78;4.85;;;19.40;99.90;;;;;;5051096;28;20055;-89
2023/07/09 02:03:17;;;;;;;8.60;4.95;;;19.90;99.90;;;;;;5050914;28;20032;-89
2023/07/09 02:05:43;;;;;;;6.70;4.88;;;19.00;99.90;;;;;;5050211;28;20044;-89
2023/07/09 02:08:09;;;;;;;8.68;5.05;;;19.90;99.90;;;;;;5024289;28;20895;-88
2023/07/09 02:10:38;;;;;;;7.95;5.45;;;19.90;99.90;;;;;;5058659;28;20118;-88
2023/07/09 02:13:03;;;;;;;8.20;5.05;;;19.90;99.90;;;;;;5058893;28;20506;-88
2023/07/09 02:15:30;;;;;;;10.43;5.68;;;19.90;99.90;;;;;;5042880;28;20053;-89
2023/07/09 02:17:58;;;;;;;7.60;5.25;;;19.90;99.90;;;;;;5025035;28;20497;-89
2023/07/09 02:20:26;;;;;;;6.97;5.07;;;19.90;99.90;;;;;;5018759;28;20498;-89
2023/07/09 02:22:51;;;;;;;6.05;4.63;;;19.90;99.90;;;;;;5021920;28;20076;-89
2023/07/09 02:25:17;;;;;;;6.57;5.22;;;19.80;99.90;;;;;;5017790;28;20082;-89
2023/07/09 02:27:43;;;;;;;7.75;5.63;;;19.80;99.90;;;;;;5018665;28;20098;-89
2023/07/09 02:30:10;;;;;;;8.95;5.28;;;19.70;99.90;;;;;;5002491;28;20745;-89
2023/07/09 02:32:37;;;;;;;6.97;5.35;;;19.70;99.90;;;;;;5033784;28;20551;-89
2023/07/09 02:35:02;;;;;;;8.85;5.32;;;19.70;99.90;;;;;;5049272;28;20045;-88
2023/07/09 02:37:28;;;;;;;7.75;5.28;;;19.60;99.90;;;;;;5049130;28;20051;-89
2023/07/09 02:39:54;;;;;;;8.55;5.43;;;19.60;99.90;;;;;;5048942;28;20060;-89
2023/07/09 02:42:22;;;;;;;7.90;5.45;;;19.60;99.90;;;;;;5015951;28;20514;-88
2023/07/09 02:44:47;;;;;;;7.70;5.68;;;19.50;99.90;;;;;;5048405;28;20036;-89
2023/07/09 02:47:14;;;;;;;7.00;5.47;;;19.60;99.90;;;;;;5032399;28;20049;-89
2023/07/09 02:49:40;;;;;;;8.13;5.47;;;19.50;99.90;;;;;;5048673;28;20051;-89
2023/07/09 02:52:08;;;;;;;7.35;5.70;;;19.50;99.90;;;;;;5048886;28;20511;-88
2023/07/09 02:54:34;;;;;;;14.35;5.78;;;19.50;99.90;;;;;;5048799;28;20102;-89
2023/07/09 02:57:00;;;;;;;8.57;5.70;;;19.40;99.90;;;;;;5032381;28;20379;-89
2023/07/09 02:59:29;;;;;;;8.27;6.35;;;19.30;99.90;;;;;;5049447;28;20121;-88
2023/07/09 03:01:55;;;;;;;7.63;5.70;;;19.50;99.90;;;;;;5048575;28;20467;-88
2023/07/09 03:04:21;;;;;;;12.13;5.88;;;19.50;99.90;;;;;;5048996;28;20481;-87
2023/07/09 03:06:48;;;;;;;7.13;5.45;;;19.40;99.90;;;;;;5048671;28;20044;-88
2023/07/09 03:09:14;;;;;;;13.45;6.13;;;18.40;99.90;;;;;;5015307;28;20060;-87
2023/07/09 03:11:39;;;;;;;9.18;5.70;;;19.40;99.90;;;;;;5032490;28;20048;-87
2023/07/09 03:14:05;;;;;;;6.75;5.28;;;19.40;99.90;;;;;;5048713;28;20044;-88
2023/07/09 03:16:33;;;;;;;9.60;5.80;;;19.40;99.90;;;;;;5049028;28;20056;-88
2023/07/09 03:18:59;;;;;;;9.35;6.28;;;19.40;99.90;;;;;;5048224;28;20052;-87
2023/07/09 03:21:27;;;;;;;7.95;5.93;;;19.40;99.90;;;;;;5031977;28;20066;-87
2023/07/09 03:23:54;;;;;;;8.05;5.57;;;19.40;99.90;;;;;;5048764;28;20614;-88
2023/07/09 03:26:23;;;;;;;7.90;5.97;;;19.30;99.90;;;;;;5048251;28;20124;-88
2023/07/09 03:28:49;;;;;;;8.20;6.10;;;19.30;99.90;;;;;;5032041;28;20051;-87
2023/07/09 03:31:15;;;;;;;9.55;6.18;;;19.30;99.90;;;;;;5030699;28;20579;-87
2023/07/09 03:33:40;;;;;;;7.30;5.13;;;19.30;99.90;;;;;;5047985;28;20136;-88
2023/07/09 03:36:07;;;;;;;7.38;5.78;;;19.30;99.90;;;;;;5047269;28;20036;-88
2023/07/09 03:38:32;;;;;;;8.05;5.60;;;19.30;99.90;;;;;;5014942;28;20090;-88
2023/07/09 03:40:58;;;;;;;7.78;5.40;;;19.30;99.90;;;;;;5047767;28;20202;-88
2023/07/09 03:43:24;;;;;;;7.95;5.38;;;19.30;99.90;;;;;;5048281;28;20044;-87
2023/07/09 03:45:51;;;;;;;8.55;5.47;;;19.30;99.90;;;;;;5048712;28;20064;-88
2023/07/09 03:48:20;;;;;;;7.80;5.90;;;19.30;99.90;;;;;;5048055;28;20471;-88
2023/07/09 03:50:47;;;;;;;8.82;5.82;;;19.30;99.90;;;;;;5031966;28;20044;-88
2023/07/09 03:53:13;;;;;;;8.55;5.70;;;19.30;99.90;;;;;;5047705;28;20238;-88
2023/07/09 03:55:40;;;;;;;8.43;6.00;;;19.30;99.90;;;;;;5031669;28;20135;-88
2023/07/09 03:58:06;;;;;;;9.05;4.60;;;19.40;99.90;;;;;;5015132;28;20135;-88
2023/07/09 04:00:32;;;;;;;11.38;6.07;;;19.30;99.90;;;;;;5015807;28;20132;-88
2023/07/09 04:02:58;;;;;;;8.68;5.75;;;19.40;99.90;;;;;;5031757;28;20040;-88
2023/07/09 04:05:25;;;;;;;8.75;5.43;;;19.40;99.90;;;;;;5015440;28;20048;-88
2023/07/09 04:07:52;;;;;;;7.38;5.15;;;19.40;99.90;;;;;;5048399;28;20056;-88
2023/07/09 04:10:19;;;;;;;6.85;5.05;;;19.40;99.90;;;;;;5047919;28;20131;-88
2023/07/09 04:12:45;;;;;;;7.82;5.63;;;19.40;99.90;;;;;;5031356;28;20037;-88
2023/07/09 04:15:14;;;;;;;9.88;6.50;;;19.40;99.90;;;;;;5048316;28;20263;-88
2023/07/09 04:17:41;;;;;;;10.90;6.28;;;19.50;99.90;;;;;;5032467;28;20127;-88
2023/07/09 04:20:09;;;;;;;10.45;5.60;;;19.60;99.90;;;;;;5048445;28;20105;-89
2023/07/09 04:22:36;;;;;;;7.80;5.70;;;18.70;99.90;;;;;;5048076;28;20120;-88
2023/07/09 04:25:03;;;;;;;7.35;5.57;;;19.60;99.90;;;;;;5047880;28;20040;-88
2023/07/09 04:27:30;;;;;;;7.15;5.35;;;19.60;99.90;;;;;;5031141;28;20049;-88
2023/07/09 04:29:55;;;;;;;7.93;5.88;;;19.70;99.90;;;;;;5048331;28;20047;-88
2023/07/09 04:32:21;;;;;;;10.50;5.85;;;19.80;99.90;;;;;;5048165;28;20037;-88
2023/07/09 04:34:47;;;;;;;6.65;4.30;;;19.80;99.90;;;;;;5047719;28;20570;-88
2023/07/09 04:37:16;;;;;;;7.50;5.05;;;19.90;99.90;;;;;;5032071;28;20479;-88
2023/07/09 04:39:42;;;;;;;7.93;5.57;;;19.90;99.90;;;;;;5048116;28;20536;-88
2023/07/09 04:42:13;;;;;;;7.63;5.72;;;20.00;99.90;;;;;;5048327;28;20037;-89
2023/07/09 04:44:40;;;;;;;6.53;5.57;;;20.40;99.90;;;;;;5047195;28;20048;-88
2023/07/09 04:47:06;;;;;;;11.60;5.13;;;20.10;99.90;;;;;;5031502;28;20047;-88
2023/07/09 04:49:32;;;;;;;7.55;5.45;;;20.20;99.90;;;;;;5031250;28;20388;-88
2023/07/09 04:51:59;;;;;;;7.95;5.32;;;20.30;99.90;;;;;;5015336;28;20040;-88
2023/07/09 04:54:25;;;;;;;12.68;4.95;;;20.40;99.90;;;;;;5047836;28;20059;-88
2023/07/09 04:56:51;;;;;;;7.07;5.10;;;20.40;99.90;;;;;;5014612;28;20396;-88
2023/07/09 04:59:16;;;;;;;6.88;5.03;;;20.50;99.90;;;;;;5030910;28;20041;-89
2023/07/09 05:01:42;;;;;;;6.45;5.18;;;20.60;99.90;;;;;;5016473;28;20044;-88
2023/07/09 05:04:08;;;;;;;6.47;4.63;;;20.70;99.90;;;;;;5034935;28;20052;-88
2023/07/09 05:06:34;;;;;;;6.95;5.00;;;21.70;99.90;;;;;;5034681;28;20491;-87
2023/07/09 05:09:00;;;;;;;6.35;5.10;;;20.80;99.90;;;;;;5051638;28;20044;-87
2023/07/09 05:11:26;;;;;;;12.35;5.65;;;20.90;99.90;;;;;;5051922;28;20067;-88
2023/07/09 05:13:52;;;;;;;7.88;5.57;;;21.00;99.90;;;;;;5051609;28;20072;-88
2023/07/09 05:16:18;;;;;;;8.15;5.30;;;21.10;99.90;;;;;;5034907;28;20055;-88
2023/07/09 05:18:45;;;;;;;7.82;5.88;;;21.20;99.90;;;;;;5033836;28;20048;-88
2023/07/09 05:21:11;;;;;;;7.63;5.22;;;21.20;99.90;;;;;;5050865;28;20036;-89
2023/07/09 05:23:36;;;;;;;9.40;5.55;;;20.70;99.90;;;;;;5035185;28;20446;-89
2023/07/09 05:26:03;;;;;;;7.38;6.10;;;21.30;99.90;;;;;;5018386;28;20132;-87
2023/07/09 05:28:30;;;;;;;7.07;4.88;;;21.40;99.90;;;;;;5034676;28;20527;-88
2023/07/09 05:30:55;;;;;;;9.85;6.40;;;21.50;99.90;;;;;;5050497;28;20503;-87
2023/07/09 05:33:21;;;;;;;11.45;6.03;;;21.60;99.90;;;;;;5034072;28;20047;-87
2023/07/09 05:35:47;;;;;;;8.68;5.30;;;21.70;99.90;;;;;;5050616;28;20521;-88
2023/07/09 05:38:14;;;;;;;6.55;5.72;;;21.70;99.90;;;;;;5051665;28;20491;-88
2023/07/09 05:40:41;;;;;;;8.68;5.13;;;20.00;99.90;;;;;;5050494;28;20040;-89
2023/07/09 05:43:08;;;;;;;15.50;7.68;;;21.90;99.90;;;;;;5034912;28;20273;-88
2023/07/09 05:45:33;;;;;;;8.65;5.40;;;21.90;99.90;;;;;;5050418;28;20056;-89
2023/07/09 05:48:00;;;;;;;7.78;5.35;;;22.00;99.90;;;;;;5050309;28;20044;-89
2023/07/09 05:50:27;;;;;;;6.88;5.38;;;22.10;99.90;;;;;;5051070;28;20430;-89
2023/07/09 05:52:52;;;;;;;5.97;5.13;;;22.20;99.90;;;;;;5049874;28;20059;-89
2023/07/09 05:55:21;;;;;;;10.63;4.70;;;22.20;99.90;;;;;;5033906;28;20048;-89
2023/07/09 05:57:47;;;;;;;9.55;5.25;;;22.10;99.90;;;;;;5033523;28;20055;-89
2023/07/09 06:00:14;;;;;;;8.63;4.95;;;22.50;99.90;;;;;;5050171;28;20570;-89
2023/07/09 06:02:39;;;;;;;7.25;5.47;;;22.60;99.90;;;;;;5049849;28;20052;-89
2023/07/09 06:05:09;;;;;;;7.75;5.25;;;22.70;99.90;;;;;;5017244;28;20037;-89
2023/07/09 06:07:35;;;;;;;9.68;4.72;;;22.80;99.90;;;;;;5034711;28;20059;-88
2023/07/09 06:10:00;;;;;;;9.20;5.28;;;22.90;99.90;;;;;;5016998;28;20040;-88
2023/07/09 06:12:26;;;;;;;8.48;5.35;;;23.00;99.90;;;;;;5033473;28;20094;-88
2023/07/09 06:14:52;;;;;;;5.57;4.97;;;23.10;99.90;;;;;;5049940;28;20040;-88
2023/07/09 06:17:17;;;;;;;7.75;5.53;;;23.10;99.90;;;;;;5050389;28;20131;-89
2023/07/09 06:19:43;;;;;;;8.13;5.40;;;23.10;99.90;;;;;;5051015;28;20088;-89
2023/07/09 06:22:09;;;;;;;11.07;5.60;;;23.10;99.90;;;;;;5050230;28;20036;-89
2023/07/09 06:24:35;;;;;;;8.75;5.93;;;23.10;99.90;;;;;;5035308;28;20056;-89
2023/07/09 06:27:00;;;;;;;8.18;5.32;;;23.20;99.90;;;;;;5033609;28;20525;-89
2023/07/09 06:29:26;;;;;;;7.07;4.90;;;23.20;99.90;;;;;;5051808;28;20070;-89
2023/07/09 06:31:52;;;;;;;9.40;4.95;;;23.30;99.90;;;;;;5022383;28;20044;-89
2023/07/09 06:34:17;;;;;;;7.35;5.25;;;23.30;99.90;;;;;;5055695;28;20153;-89
2023/07/09 06:36:43;;;;;;;6.55;5.50;;;23.40;99.90;;;;;;5036651;28;20049;-89
2023/07/09 06:39:09;;;;;;;11.65;6.20;;;23.50;99.90;;;;;;5052118;28;20044;-88
2023/07/09 06:41:38;;;;;;;9.43;6.75;;;23.70;99.90;;;;;;5050865;28;20518;-88
2023/07/09 06:44:08;;;;;;;9.43;5.32;;;23.80;99.90;;;;;;5016600;28;20048;-88
2023/07/09 06:46:34;;;;;;;9.73;4.97;;;24.00;99.90;;;;;;5049588;28;20068;-88
2023/07/09 06:49:01;;;;;;;8.80;5.63;;;24.10;99.90;;;;;;5031575;28;20102;-87
2023/07/09 06:51:27;;;;;;;8.15;4.88;;;24.30;99.90;;;;;;5031976;28;20043;-88
2023/07/09 06:53:53;;;;;;;9.55;5.22;;;24.40;99.90;;;;;;5031667;28;20045;-88
2023/07/09 06:56:18;;;;;;;10.15;5.50;;;24.60;99.90;;;;;;5048493;28;20048;-88
2023/07/09 06:58:45;;;;;;;7.20;5.43;;;24.70;99.90;;;;;;5048975;28;20131;-86
2023/07/09 07:01:12;;;;;;;7.18;5.25;;;24.80;99.90;;;;;;5048056;28;20045;-86
2023/07/09 07:03:38;;;;;;;7.65;4.97;;;24.80;99.90;;;;;;5031796;28;20083;-85
2023/07/09 07:06:06;;;;;;;8.63;4.97;;;24.90;99.90;;;;;;5047574;28;20045;-86
2023/07/09 07:08:32;;;;;;;7.28;5.15;;;25.00;99.90;;;;;;5047936;28;20506;-85
2023/07/09 07:11:04;;;;;;;8.43;5.20;;;25.00;99.90;;;;;;5031511;28;20430;-86
2023/07/09 07:13:40;;;;;;;9.30;5.40;;;25.10;99.90;;;;;;5048148;28;20475;-85
2023/07/09 07:16:11;;;;;;;7.40;5.40;;;25.20;99.90;;;;;;5048277;28;20044;-86
2023/07/09 07:18:37;;;;;;;8.43;4.78;;;25.40;99.90;;;;;;5031021;28;20041;-86
2023/07/09 07:21:06;;;;;;;6.10;4.78;;;25.60;99.90;;;;;;5048314;28;20045;-86
2023/07/09 07:23:32;;;;;;;6.57;5.03;;;26.40;99.90;;;;;;5030253;28;20090;-87
2023/07/09 07:25:58;;;;;;;6.88;5.50;;;25.90;99.70;;;;;;5049957;28;20214;-95
2023/07/09 07:28:24;;;;;;;8.75;5.60;;;26.10;99.40;;;;;;5050510;28;20040;-92
2023/07/09 07:31:05;;;;;;;5.65;4.97;;;26.20;99.50;;;;;;5017340;28;20450;-92
2023/07/09 07:33:31;;;;;;;7.88;5.15;;;26.40;98.90;;;;;;5049978;28;20063;-91
2023/07/09 07:35:57;;;;;;;6.22;4.70;;;26.60;98.80;;;;;;5032660;28;20040;-92
2023/07/09 07:38:22;;;;;;;6.72;4.75;;;26.20;98.60;;;;;;5049441;28;20399;-91
2023/07/09 07:40:51;;;;;;;5.70;4.35;;;27.00;98.50;;;;;;5048604;28;20148;-91
2023/07/09 07:43:17;;;;;;;8.80;5.25;;;27.20;97.70;;;;;;5016887;28;20127;-95
2023/07/09 07:45:43;;;;;;;8.52;5.35;;;27.20;97.50;;;;;;5018602;28;20084;-95
2023/07/09 07:48:10;;;;;;;8.90;4.55;;;26.20;97.00;;;;;;5034242;28;20495;-95
2023/07/09 07:50:37;;;;;;;6.72;4.78;;;27.10;97.20;;;;;;5034042;28;20040;-93
2023/07/09 07:53:03;;;;;;;8.57;5.50;;;26.70;97.50;;;;;;5052008;28;20045;-95
2023/07/09 07:55:28;;;;;;;6.53;4.43;;;27.20;97.50;;;;;;5034906;28;20118;-94
2023/07/09 07:57:56;;;;;;;7.10;4.47;;;27.30;97.10;;;;;;5033797;28;20045;-92
2023/07/09 08:00:22;;;;;;;7.82;5.32;;;27.30;97.10;;;;;;5017726;28;20184;-95
2023/07/09 08:02:48;;;;;;;8.43;4.93;;;27.40;97.20;;;;;;5033072;28;20280;-94
2023/07/09 08:05:17;;;;;;;6.70;4.55;;;27.50;97.10;;;;;;5049713;28;20594;-95
2023/07/09 08:07:42;;;;;;;8.95;5.28;;;27.60;97.00;;;;;;5032849;28;20041;-94
2023/07/09 08:10:08;;;;;;;9.18;5.10;;;27.70;97.00;;;;;;5048992;28;20040;-95
2023/07/09 08:12:34;;;;;;;5.50;4.30;;;27.80;97.00;;;;;;5031845;28;20110;-95
2023/07/09 08:15:03;;;;;;;7.70;4.72;;;27.90;97.30;;;;;;5017118;28;20044;-95
2023/07/09 08:17:29;;;;;;;6.32;5.13;;;28.00;97.20;;;;;;5035146;28;20048;-96
2023/07/09 08:19:56;;;;;;;10.23;4.97;;;28.20;97.30;;;;;;5035726;28;20041;-96
2023/07/09 08:22:23;;;;;;;7.18;5.10;;;28.50;97.60;;;;;;5037910;28;20072;-96
2023/07/09 08:24:50;;;;;;;7.10;5.05;;;28.50;97.00;;;;;;5038263;28;20106;-96
2023/07/09 08:27:21;;;;;;;7.35;5.18;;;29.60;96.70;;;;;;5056400;28;20037;-96
2023/07/09 08:29:47;;;;;;;7.80;4.85;;;28.70;96.10;;;;;;5035657;28;20182;-96
2023/07/09 08:32:14;;;;;;;11.23;5.30;;;28.60;96.60;;;;;;5056360;28;20072;-96
2023/07/09 08:34:41;;;;;;;6.45;4.88;;;28.80;96.10;;;;;;5038869;28;20076;-96
2023/07/09 08:37:09;;;;;;;11.23;5.53;;;27.20;95.70;;;;;;5039866;28;20094;-96
2023/07/09 08:39:36;;;;;;;7.55;5.70;;;28.20;96.10;;;;;;5040003;28;20071;-96
2023/07/09 08:42:11;;;;;;;8.18;4.85;;;29.10;96.00;;;;;;5041034;28;20068;-96
2023/07/09 08:45:08;;;;;;;8.80;5.30;;;29.20;95.90;;;;;;5043368;28;20083;-96
2023/07/09 08:47:48;;;;;;;6.05;4.85;;;29.20;94.90;;;;;;5042540;28;20044;-96
2023/07/09 08:50:22;;;;;;;6.57;5.03;;;29.40;95.50;;;;;;5052287;28;20048;-96
2023/07/09 08:52:52;;;;;;;6.47;5.07;;;28.70;95.20;;;;;;5063129;28;20048;-96
2023/07/09 08:55:25;;;;;;;7.03;4.70;;;29.50;95.40;;;;;;5047622;28;20641;-96
2023/07/09 08:58:05;;;;;;;7.30;5.53;;;29.90;95.50;;;;;;5047043;28;20043;-96
2023/07/09 09:00:42;;;;;;;10.75;5.50;;;28.30;94.50;;;;;;5044370;28;20407;-96
2023/07/09 09:03:16;;;;;;;9.35;5.70;;;30.00;94.90;;;;;;5060371;28;20036;-95
2023/07/09 09:05:46;;;;;;;8.30;5.68;;;30.20;94.50;;;;;;5042317;28;20044;-96
2023/07/09 09:08:29;;;;;;;13.13;6.88;;;30.40;93.90;;;;;;5044931;28;20045;-95
2023/07/09 09:11:10;;;;;;;7.30;5.70;;;30.60;93.30;;;;;;5039413;28;20049;-96
2023/07/09 09:13:38;;;;;;;7.88;5.82;;;30.60;93.40;;;;;;5035238;28;20052;-93
2023/07/09 09:16:10;;;;;;;8.48;6.30;;;30.70;93.60;;;;;;5003757;28;20564;-95
2023/07/09 09:18:41;;;;;;;11.38;6.68;;;29.60;93.00;;;;;;5034705;28;20040;-94
2023/07/09 09:21:23;;;;;;;10.75;7.57;;;30.80;93.00;;;;;;5053075;28;20094;-95
2023/07/09 09:23:56;;;;;;;12.25;7.32;;;30.70;92.60;;;;;;5036389;28;20052;-95
2023/07/09 09:26:34;;;;;;;9.73;6.72;;;30.70;92.80;;;;;;5034867;28;20128;-94
2023/07/09 09:29:00;;;;;;;12.85;7.40;;;30.70;92.80;;;;;;5030031;28;20045;-96
2023/07/09 09:31:28;;;;;;;10.43;7.63;;;30.60;92.80;;;;;;5035449;28;20047;-96
2023/07/09 09:33:53;;;;;;;10.15;7.07;;;30.60;92.80;;;;;;5036321;28;20060;-96
2023/07/09 09:36:23;;;;;;;9.93;7.97;;;30.70;92.80;;;;;;5018742;28;20056;-96
2023/07/09 09:38:50;;;;;;;9.57;7.72;;;30.70;92.50;;;;;;5052171;28;20060;-96
2023/07/09 09:41:37;;;;;;;9.65;7.05;;;30.80;92.50;;;;;;5035862;28;20567;-96
2023/07/09 09:44:04;;;;;;;11.73;8.15;;;31.00;92.90;;;;;;5035403;28;20040;-95
2023/07/09 09:46:32;;;;;;;10.23;7.32;;;31.70;93.20;;;;;;5019646;28;20041;-96
2023/07/09 09:49:03;;;;;;;9.50;7.90;;;30.90;92.70;;;;;;5034045;28;20087;-96
2023/07/09 09:51:29;;;;;;;9.45;7.05;;;30.80;93.00;;;;;;5020739;28;20429;-95
2023/07/09 09:54:00;;;;;;;9.57;8.30;;;30.20;93.50;;;;;;5037556;28;20048;-95
2023/07/09 09:56:33;;;;;;;10.82;9.00;;;30.90;93.10;;;;;;5053252;28;21022;-95
2023/07/09 09:59:00;;;;;;;11.90;7.95;;;30.90;93.00;;;;;;5052401;28;20067;-93
2023/07/09 10:01:29;;;;;;;10.02;7.15;;;29.90;92.90;;;;;;5049220;28;20084;-92
2023/07/09 10:03:58;;;;;;;9.48;7.13;;;31.10;93.40;;;;;;5034663;28;20135;-91
2023/07/09 10:06:35;;;;;;;7.95;6.72;;;31.20;93.20;;;;;;5033375;28;20492;-93
2023/07/09 10:09:27;;;;;;;11.32;7.25;;;31.40;92.90;;;;;;5051304;28;20040;-94
2023/07/09 10:11:57;;;;;;;;;;;31.30;92.10;;;;;;5056747;28;20075;-96
2023/07/09 10:14:46;;;;;;;11.68;8.18;;;31.20;92.40;;;;;;5052710;28;19927;-96
2023/07/09 10:17:46;;;;;;;9.63;7.82;;;31.10;93.00;;;;;;5040255;28;20587;-96
2023/07/09 10:20:41;;;;;;;9.25;6.57;;;31.10;93.10;;;;;;5051991;28;20056;-94
2023/07/09 10:23:40;;;;;;;8.75;7.15;;;31.30;92.90;;;;;;5049783;28;20144;-92
2023/07/09 10:26:29;;;;;;;8.40;7.03;;;31.50;92.60;;;;;;5035017;28;20052;-96
2023/07/09 10:29:07;;;;;;;12.15;8.30;;;31.60;92.00;;;;;;5037822;28;20044;-93
2023/07/09 10:32:00;;;;;;;10.50;7.65;;;31.50;91.90;;;;;;5033448;28;20085;-96
2023/07/09 10:34:41;;;;;;;9.55;7.07;;;31.50;91.90;;;;;;5051146;28;20053;-90
2023/07/09 10:37:42;;;;;;;8.70;6.93;;;31.50;92.00;;;;;;5034478;28;20044;-96
2023/07/09 10:40:11;;;;;;;6.78;5.72;;;31.60;91.30;;;;;;5034459;28;20380;-92
2023/07/09 10:43:00;;;;;;;9.98;6.47;;;31.60;91.60;;;;;;5034501;28;20125;-95
2023/07/09 10:45:46;;;;;;;10.40;6.80;;;31.70;91.10;;;;;;5046828;28;20139;-95
2023/07/09 10:48:19;;;;;;;8.77;6.82;;;31.50;90.80;;;;;;5036217;28;20067;-96
2023/07/09 10:50:51;;;;;;;9.85;6.57;;;31.60;91.30;;;;;;5035076;28;20092;-96
2023/07/09 10:53:36;;;;;;;11.20;7.90;;;29.90;91.20;;;;;;5036492;28;20044;-93
2023/07/09 10:56:14;;;;;;;8.60;6.53;;;31.60;91.50;;;;;;5053464;28;20407;-90
2023/07/09 10:58:49;;;;;;;9.25;6.00;;;31.70;91.20;;;;;;5057581;28;20057;-92
2023/07/09 11:01:15;;;;;;;8.40;6.60;;;31.60;91.00;;;;;;5042016;28;20051;-93
2023/07/09 11:04:09;;;;;;;7.93;6.68;;;31.70;90.80;;;;;;5059498;28;20051;-92
2023/07/09 11:06:44;;;;;;;11.48;6.00;;;30.10;88.30;;;;;;5048021;28;20056;-92
2023/07/09 11:09:31;;;;;;;7.53;5.13;;;31.60;90.00;;;;;;5037262;28;20524;-91
2023/07/09 11:12:02;;;;;;;7.22;4.90;;;31.60;90.20;;;;;;5050486;28;20040;-90
2023/07/09 11:14:40;;;;;;;7.55;5.90;;;31.60;90.10;;;;;;5033312;28;20777;-93
2023/07/09 11:17:14;;;;;;;6.75;5.50;;;31.70;88.80;;;;;;5035856;28;20102;-94
2023/07/09 11:19:46;;;;;;;6.35;5.55;;;31.80;87.60;;;;;;5052698;28;20048;-94
2023/07/09 11:22:22;;;;;;;10.18;4.93;;;31.80;86.60;;;;;;5038359;28;20048;-91
2023/07/09 11:24:51;;;;;;;8.48;5.43;;;31.90;87.70;;;;;;5053167;28;20036;-92
2023/07/09 11:27:27;;;;;;;8.77;5.45;;;32.00;87.40;;;;;;5049890;28;20044;-92
2023/07/09 11:30:05;;;;;;;8.82;5.50;;;32.10;86.40;;;;;;5050678;28;20041;-89
2023/07/09 11:32:30;;;;;;;8.02;4.80;;;32.10;86.00;;;;;;5037603;28;20068;-88
2023/07/09 11:35:08;;;;;;;6.95;5.72;;;32.40;86.90;;;;;;5040128;28;20059;-89
2023/07/09 11:37:45;;;;;;;10.05;5.93;;;32.30;86.50;;;;;;5049332;28;20079;-92
2023/07/09 11:40:13;;;;;;;8.82;6.35;;;32.40;86.70;;;;;;5040552;28;20065;-89
2023/07/09 11:42:54;;;;;;;8.70;6.07;;;32.60;86.10;;;;;;5040280;28;20060;-89
2023/07/09 11:45:26;;;;;;;9.20;6.30;;;34.10;87.30;;;;;;5032426;28;20080;-90
2023/07/09 11:48:04;;;;;;;8.32;6.15;;;32.60;86.60;;;;;;5050114;28;20199;-89
2023/07/09 11:50:36;;;;;;;7.20;5.97;;;32.70;86.20;;;;;;5034224;28;20060;-89
2023/07/09 11:53:26;;;;;;;7.28;5.25;;;32.70;86.40;;;;;;5054224;28;20092;-88
2023/07/09 11:55:51;;;;;;;9.38;5.72;;;32.70;86.00;;;;;;5038604;28;20080;-90
2023/07/09 11:58:21;;;;;;;9.65;5.57;;;32.80;86.70;;;;;;5048152;28;20194;-92
2023/07/09 12:00:50;;;;;;;14.57;12.02;;;32.80;86.40;;;;;;5033073;28;20045;-93
2023/07/09 12:03:19;;;;;;;8.73;6.25;;;32.20;85.40;;;;;;5048925;28;20048;-93
2023/07/09 12:05:52;;;;;;;9.30;6.20;;;33.00;85.10;;;;;;5033093;28;20118;-90
2023/07/09 12:08:38;;;;;;;10.85;5.75;;;33.10;85.20;;;;;;5054345;28;20058;-91
2023/07/09 12:11:04;;;;;;;10.02;5.93;;;33.20;85.40;;;;;;5049807;28;20048;-92
2023/07/09 12:13:40;;;;;;;9.48;5.43;;;33.40;84.90;;;;;;5053503;28;20041;-91
2023/07/09 12:16:25;;;;;;;7.22;5.70;;;33.40;83.40;;;;;;5051833;28;20040;-91
2023/07/09 12:18:51;;;;;;;6.72;4.78;;;33.40;83.60;;;;;;5051702;28;20045;-89
2023/07/09 12:21:17;;;;;;;6.95;4.07;;;33.40;82.00;;;;;;5052854;28;20127;-92
2023/07/09 12:23:43;;;;;;;6.90;4.60;;;33.40;79.90;;;;;;5034903;28;20048;-90
2023/07/09 12:26:15;;;;;;;7.25;4.30;;;33.40;78.10;;;;;;5036059;28;20056;-91
2023/07/09 12:28:41;;;;;;;8.95;4.72;;;33.40;77.40;;;;;;5051161;28;20044;-89
2023/07/09 12:31:15;;;;;;;6.32;5.07;;;33.30;77.10;;;;;;5035565;28;20076;-91
2023/07/09 12:33:53;;;;;;;6.93;4.97;;;33.20;75.80;;;;;;5051955;28;20098;-89
2023/07/09 12:36:20;;;;;;;8.20;4.43;;;33.10;76.50;;;;;;5050394;28;20060;-90
2023/07/09 12:38:49;;;;;;;7.55;5.43;;;33.10;76.40;;;;;;5035518;28;20048;-91
2023/07/09 12:41:31;;;;;;;5.55;4.07;;;33.10;76.30;;;;;;5033850;28;20049;-89
2023/07/09 12:43:57;;;;;;;6.93;4.82;;;33.20;76.10;;;;;;5035140;28;20122;-91
2023/07/09 12:46:24;;;;;;;7.07;4.93;;;33.10;75.50;;;;;;5051021;28;20048;-90
2023/07/09 12:48:52;;;;;;;6.78;4.75;;;33.00;75.00;;;;;;5051475;28;20435;-88
2023/07/09 12:51:24;;;;;;;9.13;5.05;;;33.00;75.20;;;;;;5052242;28;20041;-88
2023/07/09 12:54:27;;;;;;;7.15;5.03;;;33.00;75.50;;;;;;5033638;28;20068;-90
2023/07/09 12:56:54;;;;;;;5.18;4.68;;;32.90;75.00;;;;;;4971659;28;20050;-89
2023/07/09 12:59:26;;;;;;;6.07;4.30;;;33.00;76.00;;;;;;5036470;28;20049;-88